createdAt,value
2023-05-21T00:00:14.428Z,94354.00
2023-05-21T00:01:14.490Z,94359.00
2023-05-21T00:02:14.405Z,94358.00
2023-05-21T00:03:14.500Z,94361.00
2023-05-21T00:04:14.414Z,94361.00
2023-05-21T00:05:14.923Z,94358.00
2023-05-21T00:06:14.488Z,94356.00
2023-05-21T00:07:14.365Z,94358.00
2023-05-21T00:08:14.379Z,94358.00
2023-05-21T00:09:14.364Z,94358.00
2023-05-21T00:10:14.363Z,94352.00
2023-05-21T00:11:14.343Z,94354.00
2023-05-21T00:12:14.349Z,94350.00
2023-05-21T00:13:14.359Z,94350.00
2023-05-21T00:14:14.329Z,94350.00
2023-05-21T00:15:14.309Z,94352.00
2023-05-21T00:16:14.312Z,94358.00
2023-05-21T00:17:14.291Z,94358.00
2023-05-21T00:18:14.357Z,94356.00
2023-05-21T00:19:14.487Z,94354.00
2023-05-21T00:20:14.505Z,94358.00
2023-05-21T00:21:14.547Z,94356.00
2023-05-21T00:22:14.616Z,94352.00
2023-05-21T00:23:14.629Z,94356.00
2023-05-21T00:24:14.672Z,94356.00
2023-05-21T00:25:14.717Z,94358.00
2023-05-21T00:26:14.718Z,94356.00
2023-05-21T00:27:14.755Z,94356.00
2023-05-21T00:28:14.805Z,94356.00
2023-05-21T00:29:14.853Z,94356.00
2023-05-21T00:30:14.935Z,94358.00
2023-05-21T00:31:15.018Z,94358.00
2023-05-21T00:32:15.044Z,94358.00
2023-05-21T00:33:15.063Z,94358.00
2023-05-21T00:34:15.082Z,94358.00
2023-05-21T00:35:15.109Z,94354.00
2023-05-21T00:36:15.099Z,94352.00
2023-05-21T00:37:15.072Z,94348.00
2023-05-21T00:38:15.079Z,94344.00
2023-05-21T00:39:15.093Z,94348.00
2023-05-21T00:40:15.098Z,94346.00
2023-05-21T00:41:15.103Z,94348.00
2023-05-21T00:42:15.104Z,94350.00
2023-05-21T00:43:15.107Z,94350.00
2023-05-21T00:44:15.118Z,94352.00
2023-05-21T00:45:15.124Z,94352.00
2023-05-21T00:46:15.174Z,94356.00
2023-05-21T00:47:15.158Z,94354.00
2023-05-21T00:48:15.177Z,94350.00
2023-05-21T00:49:15.185Z,94352.00
2023-05-21T00:50:15.287Z,94350.00
2023-05-21T00:51:15.206Z,94352.00
2023-05-21T00:52:15.226Z,94358.00
2023-05-21T00:53:15.231Z,94359.00
2023-05-21T00:54:15.230Z,94358.00
2023-05-21T00:55:15.243Z,94354.00
2023-05-21T00:56:15.252Z,94354.00
2023-05-21T00:57:15.256Z,94354.00
2023-05-21T00:58:15.246Z,94356.00
2023-05-21T00:59:15.254Z,94358.00
2023-05-21T01:00:15.283Z,94358.00
2023-05-21T01:01:15.316Z,94361.00
2023-05-21T01:02:15.455Z,94361.00
2023-05-21T01:03:15.597Z,94359.00
2023-05-21T01:04:15.397Z,94358.00
2023-05-21T01:05:15.474Z,94358.00
2023-05-21T01:06:15.451Z,94359.00
2023-05-21T01:07:15.441Z,94359.00
2023-05-21T01:08:15.455Z,94356.00
2023-05-21T01:09:15.496Z,94358.00
2023-05-21T01:10:15.531Z,94356.00
2023-05-21T01:11:15.551Z,94354.00
2023-05-21T01:12:15.600Z,94354.00
2023-05-21T01:13:15.621Z,94354.00
2023-05-21T01:14:15.651Z,94350.00
2023-05-21T01:15:15.647Z,94354.00
2023-05-21T01:16:15.695Z,94350.00
2023-05-21T01:17:15.798Z,94352.00
2023-05-21T01:18:15.830Z,94350.00
2023-05-21T01:19:15.866Z,94346.00
2023-05-21T01:20:15.870Z,94346.00
2023-05-21T01:21:15.891Z,94344.00
2023-05-21T01:22:15.900Z,94346.00
2023-05-21T01:23:15.918Z,94348.00
2023-05-21T01:24:15.955Z,94340.00
2023-05-21T01:25:15.999Z,94342.00
2023-05-21T01:26:16.163Z,94340.00
2023-05-21T01:27:16.072Z,94340.00
2023-05-21T01:28:16.102Z,94342.00
2023-05-21T01:29:16.135Z,94344.00
2023-05-21T01:30:16.153Z,94346.00
2023-05-21T01:31:16.184Z,94348.00
2023-05-21T01:32:16.235Z,94342.00
2023-05-21T01:33:16.392Z,94342.00
2023-05-21T01:34:16.342Z,94340.00
2023-05-21T01:35:16.397Z,94342.00
2023-05-21T01:36:16.485Z,94338.00
2023-05-21T01:37:16.522Z,94338.00
2023-05-21T01:38:16.558Z,94334.00
2023-05-21T01:39:16.611Z,94334.00
2023-05-21T01:40:16.690Z,94338.00
2023-05-21T01:41:16.722Z,94338.00
2023-05-21T01:42:16.757Z,94336.00
2023-05-21T01:43:16.821Z,94336.00
2023-05-21T01:44:16.912Z,94338.00
2023-05-21T01:45:16.954Z,94336.00
2023-05-21T01:46:17.051Z,94334.00
2023-05-21T01:47:17.067Z,94330.00
2023-05-21T01:48:17.084Z,94334.00
2023-05-21T01:49:17.112Z,94334.00
2023-05-21T01:50:17.165Z,94338.00
2023-05-21T01:51:17.169Z,94340.00
2023-05-21T01:52:17.208Z,94340.00
2023-05-21T01:53:17.281Z,94340.00
2023-05-21T01:54:17.293Z,94338.00
2023-05-21T01:55:17.347Z,94342.00
2023-05-21T01:56:17.394Z,94344.00
2023-05-21T01:57:17.474Z,94340.00
2023-05-21T01:58:17.532Z,94336.00
2023-05-21T01:59:17.556Z,94336.00
2023-05-21T02:00:17.616Z,94334.00
2023-05-21T02:01:17.687Z,94334.00
2023-05-21T02:02:17.776Z,94334.00
2023-05-21T02:03:17.840Z,94330.00
2023-05-21T02:04:17.846Z,94332.00
2023-05-21T02:05:17.844Z,94332.00
2023-05-21T02:06:17.954Z,94334.00
2023-05-21T02:07:18.017Z,94332.00
2023-05-21T02:08:18.014Z,94332.00
2023-05-21T02:09:17.996Z,94332.00
2023-05-21T02:10:18.004Z,94332.00
2023-05-21T02:11:17.991Z,94330.00
2023-05-21T02:12:18.011Z,94330.00
2023-05-21T02:13:17.996Z,94334.00
2023-05-21T02:14:17.997Z,94332.00
2023-05-21T02:15:18.214Z,94334.00
2023-05-21T02:16:18.042Z,94332.00
2023-05-21T02:17:17.982Z,94334.00
2023-05-21T02:18:18.078Z,94332.00
2023-05-21T02:19:18.080Z,94336.00
2023-05-21T02:20:18.065Z,94332.00
2023-05-21T02:21:18.094Z,94332.00
2023-05-21T02:22:18.112Z,94334.00
2023-05-21T02:23:18.098Z,94336.00
2023-05-21T02:24:18.228Z,94338.00
2023-05-21T02:25:18.315Z,94338.00
2023-05-21T02:26:18.408Z,94338.00
2023-05-21T02:27:18.420Z,94346.00
2023-05-21T02:28:18.437Z,94342.00
2023-05-21T02:29:18.422Z,94342.00
2023-05-21T02:30:18.442Z,94342.00
2023-05-21T02:31:18.439Z,94340.00
2023-05-21T02:32:18.459Z,94338.00
2023-05-21T02:33:18.445Z,94338.00
2023-05-21T02:34:18.465Z,94342.00
2023-05-21T02:35:18.463Z,94338.00
2023-05-21T02:36:18.542Z,94336.00
2023-05-21T02:37:18.491Z,94336.00
2023-05-21T02:38:18.519Z,94336.00
2023-05-21T02:39:18.518Z,94336.00
2023-05-21T02:40:18.533Z,94336.00
2023-05-21T02:41:18.535Z,94336.00
2023-05-21T02:42:18.556Z,94336.00
2023-05-21T02:43:18.589Z,94336.00
2023-05-21T02:44:18.588Z,94332.00
2023-05-21T02:45:18.622Z,94332.00
2023-05-21T02:46:18.649Z,94330.00
2023-05-21T02:47:18.652Z,94328.00
2023-05-21T02:48:18.660Z,94326.00
2023-05-21T02:49:18.712Z,94324.00
2023-05-21T02:50:18.716Z,94324.00
2023-05-21T02:51:18.725Z,94324.00
2023-05-21T02:52:18.773Z,94320.00
2023-05-21T02:53:18.782Z,94316.00
2023-05-21T02:54:18.800Z,94316.00
2023-05-21T02:55:18.834Z,94316.00
2023-05-21T02:56:18.845Z,94318.00
2023-05-21T02:57:18.821Z,94320.00
2023-05-21T02:58:18.850Z,94320.00
2023-05-21T02:59:18.864Z,94324.00
2023-05-21T03:00:18.925Z,94320.00
2023-05-21T03:01:18.977Z,94318.00
2023-05-21T03:02:19.015Z,94318.00
2023-05-21T03:03:19.047Z,94318.00
2023-05-21T03:04:18.950Z,94320.00
2023-05-21T03:05:18.998Z,94324.00
2023-05-21T03:06:18.995Z,94328.00
2023-05-21T03:07:19.164Z,94330.00
2023-05-21T03:08:19.027Z,94334.00
2023-05-21T03:09:19.042Z,94334.00
2023-05-21T03:10:19.068Z,94334.00
2023-05-21T03:11:19.083Z,94334.00
2023-05-21T03:12:19.116Z,94334.00
2023-05-21T03:13:19.176Z,94338.00
2023-05-21T03:14:19.152Z,94340.00
2023-05-21T03:15:19.200Z,94342.00
2023-05-21T03:16:19.209Z,94338.00
2023-05-21T03:17:19.238Z,94340.00
2023-05-21T03:18:19.223Z,94344.00
2023-05-21T03:19:19.317Z,94346.00
2023-05-21T03:20:19.266Z,94346.00
2023-05-21T03:21:19.249Z,94346.00
2023-05-21T03:22:19.271Z,94346.00
2023-05-21T03:23:19.314Z,94348.00
2023-05-21T03:24:19.294Z,94346.00
2023-05-21T03:25:19.310Z,94352.00
2023-05-21T03:26:19.331Z,94346.00
2023-05-21T03:27:19.342Z,94350.00
2023-05-21T03:28:19.381Z,94348.00
2023-05-21T03:29:19.390Z,94346.00
2023-05-21T03:30:19.411Z,94344.00
2023-05-21T03:31:19.429Z,94344.00
2023-05-21T03:32:19.513Z,94340.00
2023-05-21T03:33:19.464Z,94344.00
2023-05-21T03:34:19.461Z,94340.00
2023-05-21T03:35:19.491Z,94338.00
2023-05-21T03:36:19.465Z,94342.00
2023-05-21T03:37:19.505Z,94344.00
2023-05-21T03:38:19.515Z,94346.00
2023-05-21T03:39:19.522Z,94342.00
2023-05-21T03:40:19.590Z,94344.00
2023-05-21T03:41:19.560Z,94342.00
2023-05-21T03:42:19.573Z,94338.00
2023-05-21T03:43:19.610Z,94342.00
2023-05-21T03:44:19.612Z,94342.00
2023-05-21T03:45:19.629Z,94346.00
2023-05-21T03:46:19.700Z,94348.00
2023-05-21T03:47:19.682Z,94348.00
2023-05-21T03:48:19.682Z,94350.00
2023-05-21T03:49:19.711Z,94348.00
2023-05-21T03:50:19.739Z,94348.00
2023-05-21T03:51:19.738Z,94348.00
2023-05-21T03:52:19.748Z,94348.00
2023-05-21T03:53:19.781Z,94348.00
2023-05-21T03:54:19.789Z,94348.00
2023-05-21T03:55:19.829Z,94346.00
2023-05-21T03:56:19.825Z,94346.00
2023-05-21T03:57:19.841Z,94348.00
2023-05-21T03:58:19.829Z,94346.00
2023-05-21T03:59:19.848Z,94348.00
2023-05-21T04:00:19.902Z,94350.00
2023-05-21T04:01:19.890Z,94352.00
2023-05-21T04:02:20.013Z,94348.00
2023-05-21T04:03:20.005Z,94348.00
2023-05-21T04:04:20.016Z,94352.00
2023-05-21T04:05:19.977Z,94352.00
2023-05-21T04:06:19.966Z,94350.00
2023-05-21T04:07:19.967Z,94348.00
2023-05-21T04:08:20.022Z,94354.00
2023-05-21T04:09:20.001Z,94354.00
2023-05-21T04:10:20.046Z,94354.00
2023-05-21T04:11:20.017Z,94356.00
2023-05-21T04:12:20.065Z,94358.00
2023-05-21T04:13:20.058Z,94358.00
2023-05-21T04:14:20.069Z,94359.00
2023-05-21T04:15:20.114Z,94359.00
2023-05-21T04:16:20.115Z,94363.00
2023-05-21T04:17:20.089Z,94363.00
2023-05-21T04:18:20.106Z,94363.00
2023-05-21T04:19:20.236Z,94359.00
2023-05-21T04:20:20.161Z,94358.00
2023-05-21T04:21:20.182Z,94356.00
2023-05-21T04:22:20.201Z,94358.00
2023-05-21T04:23:20.188Z,94361.00
2023-05-21T04:24:20.208Z,94361.00
2023-05-21T04:25:20.183Z,94363.00
2023-05-21T04:26:20.194Z,94363.00
2023-05-21T04:27:20.223Z,94363.00
2023-05-21T04:28:20.444Z,94363.00
2023-05-21T04:29:20.232Z,94361.00
2023-05-21T04:30:20.293Z,94363.00
2023-05-21T04:31:20.297Z,94375.00
2023-05-21T04:32:20.347Z,94375.00
2023-05-21T04:33:20.429Z,94379.00
2023-05-21T04:34:20.327Z,94377.00
2023-05-21T04:35:20.337Z,94379.00
2023-05-21T04:36:20.323Z,94379.00
2023-05-21T04:37:20.325Z,94379.00
2023-05-21T04:38:20.341Z,94383.00
2023-05-21T04:39:20.340Z,94379.00
2023-05-21T04:40:20.389Z,94379.00
2023-05-21T04:41:20.372Z,94379.00
2023-05-21T04:42:20.370Z,94381.00
2023-05-21T04:43:20.387Z,94381.00
2023-05-21T04:44:20.388Z,94381.00
2023-05-21T04:45:20.417Z,94381.00
2023-05-21T04:46:20.446Z,94381.00
2023-05-21T04:47:20.450Z,94383.00
2023-05-21T04:48:20.440Z,94381.00
2023-05-21T04:49:20.468Z,94383.00
2023-05-21T04:50:20.465Z,94381.00
2023-05-21T04:51:20.492Z,94381.00
2023-05-21T04:52:20.501Z,94381.00
2023-05-21T04:53:20.523Z,94379.00
2023-05-21T04:54:20.527Z,94381.00
2023-05-21T04:55:20.536Z,94381.00
2023-05-21T04:56:20.619Z,94381.00
2023-05-21T04:57:20.585Z,94377.00
2023-05-21T04:58:20.623Z,94381.00
2023-05-21T04:59:20.616Z,94383.00
2023-05-21T05:00:20.620Z,94381.00
2023-05-21T05:01:20.676Z,94381.00
2023-05-21T05:02:20.657Z,94383.00
2023-05-21T05:03:20.764Z,94379.00
2023-05-21T05:04:20.682Z,94383.00
2023-05-21T05:05:20.736Z,94383.00
2023-05-21T05:06:20.743Z,94385.00
2023-05-21T05:07:20.737Z,94381.00
2023-05-21T05:08:20.783Z,94381.00
2023-05-21T05:09:20.880Z,94385.00
2023-05-21T05:10:20.860Z,94389.00
2023-05-21T05:11:20.848Z,94387.00
2023-05-21T05:12:20.854Z,94387.00
2023-05-21T05:13:20.880Z,94389.00
2023-05-21T05:14:20.881Z,94385.00
2023-05-21T05:15:20.918Z,94389.00
2023-05-21T05:16:20.963Z,94387.00
2023-05-21T05:17:20.953Z,94387.00
2023-05-21T05:18:20.961Z,94387.00
2023-05-21T05:19:21.018Z,94383.00
2023-05-21T05:20:21.055Z,94387.00
2023-05-21T05:21:21.029Z,94383.00
2023-05-21T05:22:21.036Z,94387.00
2023-05-21T05:23:21.066Z,94383.00
2023-05-21T05:24:21.091Z,94383.00
2023-05-21T05:25:21.115Z,94383.00
2023-05-21T05:26:21.118Z,94379.00
2023-05-21T05:27:21.151Z,94373.00
2023-05-21T05:28:21.118Z,94375.00
2023-05-21T05:29:21.156Z,94365.00
2023-05-21T05:30:21.182Z,94373.00
2023-05-21T05:31:21.255Z,94365.00
2023-05-21T05:32:21.314Z,94365.00
2023-05-21T05:33:21.415Z,94361.00
2023-05-21T05:34:21.437Z,94358.00
2023-05-21T05:35:21.442Z,94358.00
2023-05-21T05:36:21.415Z,94359.00
2023-05-21T05:37:21.433Z,94356.00
2023-05-21T05:38:21.449Z,94356.00
2023-05-21T05:39:21.471Z,94358.00
2023-05-21T05:40:21.566Z,94358.00
2023-05-21T05:41:21.610Z,94363.00
2023-05-21T05:42:21.622Z,94363.00
2023-05-21T05:43:21.695Z,94365.00
2023-05-21T05:44:21.727Z,94359.00
2023-05-21T05:45:21.752Z,94359.00
2023-05-21T05:46:21.862Z,94361.00
2023-05-21T05:47:21.894Z,94359.00
2023-05-21T05:48:21.910Z,94358.00
2023-05-21T05:49:21.971Z,94358.00
2023-05-21T05:50:22.050Z,94354.00
2023-05-21T05:51:22.111Z,94352.00
2023-05-21T05:52:22.139Z,94356.00
2023-05-21T05:53:22.226Z,94356.00
2023-05-21T05:54:22.283Z,94354.00
2023-05-21T05:55:22.323Z,94356.00
2023-05-21T05:56:22.409Z,94356.00
2023-05-21T05:57:22.461Z,94352.00
2023-05-21T05:58:22.510Z,94354.00
2023-05-21T05:59:22.560Z,94352.00
2023-05-21T06:00:22.629Z,94354.00
2023-05-21T06:01:22.744Z,94352.00
2023-05-21T06:02:22.785Z,94354.00
2023-05-21T06:03:22.884Z,94358.00
2023-05-21T06:04:22.768Z,94358.00
2023-05-21T06:05:22.837Z,94359.00
2023-05-21T06:06:22.926Z,94359.00
2023-05-21T06:07:22.929Z,94359.00
2023-05-21T06:08:22.958Z,94356.00
2023-05-21T06:09:22.976Z,94356.00
2023-05-21T06:10:23.052Z,94356.00
2023-05-21T06:11:23.064Z,94358.00
2023-05-21T06:12:23.107Z,94356.00
2023-05-21T06:13:23.133Z,94359.00
2023-05-21T06:14:23.146Z,94358.00
2023-05-21T06:15:23.219Z,94358.00
2023-05-21T06:16:23.248Z,94352.00
2023-05-21T06:17:23.276Z,94356.00
2023-05-21T06:18:23.259Z,94356.00
2023-05-21T06:19:23.321Z,94354.00
2023-05-21T06:20:23.308Z,94358.00
2023-05-21T06:21:23.335Z,94354.00
2023-05-21T06:22:24.916Z,94356.00
2023-05-21T06:23:23.359Z,94359.00
2023-05-21T06:24:23.383Z,94356.00
2023-05-21T06:25:23.416Z,94358.00
2023-05-21T06:26:23.410Z,94356.00
2023-05-21T06:27:23.408Z,94354.00
2023-05-21T06:28:23.413Z,94356.00
2023-05-21T06:29:23.447Z,94352.00
2023-05-21T06:30:23.499Z,94350.00
2023-05-21T06:31:23.440Z,94350.00
2023-05-21T06:32:23.666Z,94348.00
2023-05-21T06:33:23.636Z,94350.00
2023-05-21T06:34:23.537Z,94348.00
2023-05-21T06:35:23.609Z,94350.00
2023-05-21T06:36:23.629Z,94350.00
2023-05-21T06:37:24.836Z,94348.00
2023-05-21T06:38:23.655Z,94350.00
2023-05-21T06:39:23.659Z,94350.00
2023-05-21T06:40:23.690Z,94350.00
2023-05-21T06:41:23.641Z,94348.00
2023-05-21T06:42:23.638Z,94348.00
2023-05-21T06:43:23.622Z,94346.00
2023-05-21T06:44:23.606Z,94350.00
2023-05-21T06:45:23.648Z,94348.00
2023-05-21T06:46:23.672Z,94348.00
2023-05-21T06:47:23.627Z,94348.00
2023-05-21T06:48:23.609Z,94346.00
2023-05-21T06:49:23.613Z,94348.00
2023-05-21T06:50:23.621Z,94348.00
2023-05-21T06:51:23.584Z,94346.00
2023-05-21T06:52:23.574Z,94348.00
2023-05-21T06:53:23.567Z,94348.00
2023-05-21T06:54:24.906Z,94348.00
2023-05-21T06:55:23.736Z,94344.00
2023-05-21T06:56:23.713Z,94346.00
2023-05-21T06:57:23.773Z,94346.00
2023-05-21T06:58:23.729Z,94346.00
2023-05-21T06:59:23.742Z,94346.00
2023-05-21T07:00:23.811Z,94348.00
2023-05-21T07:01:23.845Z,94348.00
2023-05-21T07:02:23.850Z,94348.00
2023-05-21T07:03:24.002Z,94344.00
2023-05-21T07:04:23.783Z,94346.00
2023-05-21T07:05:23.819Z,94348.00
2023-05-21T07:06:23.801Z,94348.00
2023-05-21T07:07:23.802Z,94346.00
2023-05-21T07:08:23.785Z,94348.00
2023-05-21T07:09:23.802Z,94350.00
2023-05-21T07:10:23.827Z,94348.00
2023-05-21T07:11:23.818Z,94348.00
2023-05-21T07:12:23.820Z,94346.00
2023-05-21T07:13:23.848Z,94346.00
2023-05-21T07:14:23.829Z,94344.00
2023-05-21T07:15:23.850Z,94344.00
2023-05-21T07:16:23.887Z,94340.00
2023-05-21T07:17:23.919Z,94342.00
2023-05-21T07:18:23.899Z,94340.00
2023-05-21T07:19:23.961Z,94340.00
2023-05-21T07:20:23.945Z,94342.00
2023-05-21T07:21:23.924Z,94338.00
2023-05-21T07:22:25.498Z,94338.00
2023-05-21T07:23:23.949Z,94338.00
2023-05-21T07:24:23.938Z,94332.00
2023-05-21T07:25:23.925Z,94334.00
2023-05-21T07:26:23.928Z,94326.00
2023-05-21T07:27:25.612Z,94326.00
2023-05-21T07:28:23.912Z,94322.00
2023-05-21T07:29:23.891Z,94320.00
2023-05-21T07:30:23.944Z,94316.00
2023-05-21T07:31:24.052Z,94311.00
2023-05-21T07:32:24.064Z,94312.00
2023-05-21T07:33:24.021Z,94311.00
2023-05-21T07:34:24.054Z,94309.00
2023-05-21T07:35:24.135Z,94311.00
2023-05-21T07:36:24.153Z,94309.00
2023-05-21T07:37:24.220Z,94307.00
2023-05-21T07:38:24.270Z,94305.00
2023-05-21T07:39:24.310Z,94307.00
2023-05-21T07:40:24.449Z,94307.00
2023-05-21T07:41:24.406Z,94307.00
2023-05-21T07:42:24.461Z,94303.00
2023-05-21T07:43:24.593Z,94301.00
2023-05-21T07:44:24.549Z,94303.00
2023-05-21T07:45:24.591Z,94299.00
2023-05-21T07:46:24.672Z,94299.00
2023-05-21T07:47:24.689Z,94299.00
2023-05-21T07:48:24.696Z,94297.00
2023-05-21T07:49:24.700Z,94297.00
2023-05-21T07:50:24.746Z,94299.00
2023-05-21T07:51:24.749Z,94297.00
2023-05-21T07:52:24.809Z,94301.00
2023-05-21T07:53:24.732Z,94299.00
2023-05-21T07:54:24.795Z,94299.00
2023-05-21T07:55:24.765Z,94301.00
2023-05-21T07:56:24.766Z,94303.00
2023-05-21T07:57:24.796Z,94303.00
2023-05-21T07:58:24.875Z,94301.00
2023-05-21T07:59:24.880Z,94301.00
2023-05-21T08:00:24.975Z,94299.00
2023-05-21T08:01:25.001Z,94295.00
2023-05-21T08:02:25.140Z,94299.00
2023-05-21T08:03:25.255Z,94291.00
2023-05-21T08:04:25.332Z,94295.00
2023-05-21T08:05:25.241Z,94295.00
2023-05-21T08:06:25.301Z,94293.00
2023-05-21T08:07:25.364Z,94295.00
2023-05-21T08:08:25.409Z,94287.00
2023-05-21T08:09:25.446Z,94287.00
2023-05-21T08:10:25.500Z,94285.00
2023-05-21T08:11:25.519Z,94285.00
2023-05-21T08:12:25.583Z,94283.00
2023-05-21T08:13:25.598Z,94285.00
2023-05-21T08:14:25.630Z,94279.00
2023-05-21T08:15:25.650Z,94279.00
2023-05-21T08:16:25.718Z,94281.00
2023-05-21T08:17:25.732Z,94277.00
2023-05-21T08:18:25.716Z,94275.00
2023-05-21T08:19:25.818Z,94277.00
2023-05-21T08:20:25.782Z,94273.00
2023-05-21T08:21:25.804Z,94275.00
2023-05-21T08:22:25.821Z,94273.00
2023-05-21T08:23:25.838Z,94273.00
2023-05-21T08:24:25.847Z,94271.00
2023-05-21T08:25:25.865Z,94267.00
2023-05-21T08:26:25.866Z,94267.00
2023-05-21T08:27:25.864Z,94265.00
2023-05-21T08:28:25.886Z,94262.00
2023-05-21T08:29:25.889Z,94267.00
2023-05-21T08:30:25.888Z,94264.00
2023-05-21T08:31:25.919Z,94265.00
2023-05-21T08:32:25.918Z,94265.00
2023-05-21T08:33:25.939Z,94264.00
2023-05-21T08:34:25.916Z,94264.00
2023-05-21T08:35:25.916Z,94265.00
2023-05-21T08:36:25.945Z,94264.00
2023-05-21T08:37:25.960Z,94260.00
2023-05-21T08:38:27.036Z,94260.00
2023-05-21T08:39:26.016Z,94258.00
2023-05-21T08:40:25.961Z,94256.00
2023-05-21T08:41:25.954Z,94256.00
2023-05-21T08:42:36.208Z,94260.00
2023-05-21T08:43:26.936Z,94254.00
2023-05-21T08:44:25.947Z,94254.00
2023-05-21T08:45:25.953Z,94254.00
2023-05-21T08:46:25.994Z,94256.00
2023-05-21T08:47:25.928Z,94256.00
2023-05-21T08:48:25.918Z,94258.00
2023-05-21T08:49:27.283Z,94256.00
2023-05-21T08:50:25.884Z,94256.00
2023-05-21T08:51:25.913Z,94254.00
2023-05-21T08:52:25.882Z,94252.00
2023-05-21T08:53:28.618Z,94250.00
2023-05-21T08:54:25.880Z,94246.00
2023-05-21T08:55:25.864Z,94246.00
2023-05-21T08:56:25.880Z,94244.00
2023-05-21T08:57:25.856Z,94240.00
2023-05-21T08:58:25.838Z,94242.00
2023-05-21T08:59:25.848Z,94242.00
2023-05-21T09:00:25.830Z,94242.00
2023-05-21T09:01:26.656Z,94240.00
2023-05-21T09:02:25.886Z,94240.00
2023-05-21T09:03:26.000Z,94242.00
2023-05-21T09:04:25.851Z,94240.00
2023-05-21T09:05:25.806Z,94238.00
2023-05-21T09:06:25.805Z,94238.00
2023-05-21T09:07:25.791Z,94238.00
2023-05-21T09:08:25.797Z,94236.00
2023-05-21T09:09:25.773Z,94234.00
2023-05-21T09:10:25.774Z,94240.00
2023-05-21T09:11:25.789Z,94240.00
2023-05-21T09:12:25.765Z,94236.00
2023-05-21T09:13:25.794Z,94236.00
2023-05-21T09:14:25.754Z,94232.00
2023-05-21T09:15:25.761Z,94236.00
2023-05-21T09:16:25.782Z,94230.00
2023-05-21T09:17:25.745Z,94230.00
2023-05-21T09:18:25.728Z,94230.00
2023-05-21T09:19:25.770Z,94230.00
2023-05-21T09:20:25.724Z,94228.00
2023-05-21T09:21:25.726Z,94228.00
2023-05-21T09:22:25.708Z,94224.00
2023-05-21T09:23:25.717Z,94228.00
2023-05-21T09:24:25.705Z,94224.00
2023-05-21T09:25:25.668Z,94224.00
2023-05-21T09:26:25.689Z,94222.00
2023-05-21T09:27:25.650Z,94224.00
2023-05-21T09:28:25.675Z,94220.00
2023-05-21T09:29:25.665Z,94220.00
2023-05-21T09:30:28.679Z,94222.00
2023-05-21T09:31:25.643Z,94218.00
2023-05-21T09:32:25.639Z,94216.00
2023-05-21T09:33:25.639Z,94220.00
2023-05-21T09:34:25.611Z,94218.00
2023-05-21T09:35:25.632Z,94216.00
2023-05-21T09:36:25.609Z,94218.00
2023-05-21T09:37:27.407Z,94218.00
2023-05-21T09:38:25.592Z,94216.00
2023-05-21T09:39:25.597Z,94216.00
2023-05-21T09:40:25.565Z,94218.00
2023-05-21T09:41:25.586Z,94220.00
2023-05-21T09:42:25.560Z,94218.00
2023-05-21T09:43:25.551Z,94216.00
2023-05-21T09:44:25.552Z,94216.00
2023-05-21T09:45:25.559Z,94212.00
2023-05-21T09:46:25.551Z,94212.00
2023-05-21T09:47:25.635Z,94209.00
2023-05-21T09:48:25.655Z,94210.00
2023-05-21T09:49:25.735Z,94209.00
2023-05-21T09:50:25.712Z,94209.00
2023-05-21T09:51:25.757Z,94207.00
2023-05-21T09:52:25.793Z,94207.00
2023-05-21T09:53:25.874Z,94203.00
2023-05-21T09:54:25.923Z,94201.00
2023-05-21T09:55:25.934Z,94205.00
2023-05-21T09:56:25.965Z,94201.00
2023-05-21T09:57:25.989Z,94203.00
2023-05-21T09:58:26.019Z,94201.00
2023-05-21T09:59:26.060Z,94199.00
2023-05-21T10:00:26.068Z,94197.00
2023-05-21T10:01:26.168Z,94195.00
2023-05-21T10:02:26.129Z,94195.00
2023-05-21T10:03:26.126Z,94195.00
2023-05-21T10:04:26.174Z,94193.00
2023-05-21T10:05:26.141Z,94191.00
2023-05-21T10:06:26.185Z,94189.00
2023-05-21T10:07:26.345Z,94189.00
2023-05-21T10:08:26.297Z,94185.00
2023-05-21T10:09:26.305Z,94185.00
2023-05-21T10:10:26.365Z,94185.00
2023-05-21T10:11:26.431Z,94181.00
2023-05-21T10:12:26.483Z,94185.00
2023-05-21T10:13:26.531Z,94185.00
2023-05-21T10:14:26.563Z,94183.00
2023-05-21T10:15:26.659Z,94179.00
2023-05-21T10:16:26.671Z,94179.00
2023-05-21T10:17:26.726Z,94177.00
2023-05-21T10:18:26.739Z,94173.00
2023-05-21T10:19:26.937Z,94173.00
2023-05-21T10:20:26.827Z,94177.00
2023-05-21T10:21:26.839Z,94173.00
2023-05-21T10:22:26.905Z,94171.00
2023-05-21T10:23:26.928Z,94169.00
2023-05-21T10:24:26.944Z,94175.00
2023-05-21T10:25:26.966Z,94175.00
2023-05-21T10:26:27.026Z,94163.00
2023-05-21T10:27:27.036Z,94158.00
2023-05-21T10:28:27.047Z,94158.00
2023-05-21T10:29:27.057Z,94158.00
2023-05-21T10:30:27.082Z,94162.00
2023-05-21T10:31:27.201Z,94160.00
2023-05-21T10:32:27.315Z,94154.00
2023-05-21T10:33:27.255Z,94154.00
2023-05-21T10:34:27.271Z,94154.00
2023-05-21T10:35:27.314Z,94152.00
2023-05-21T10:36:27.332Z,94150.00
2023-05-21T10:37:27.366Z,94150.00
2023-05-21T10:38:27.377Z,94148.00
2023-05-21T10:39:27.395Z,94144.00
2023-05-21T10:40:27.422Z,94146.00
2023-05-21T10:41:27.493Z,94146.00
2023-05-21T10:42:27.573Z,94144.00
2023-05-21T10:43:27.540Z,94148.00
2023-05-21T10:44:27.603Z,94146.00
2023-05-21T10:45:27.685Z,94144.00
2023-05-21T10:46:27.687Z,94144.00
2023-05-21T10:47:27.778Z,94142.00
2023-05-21T10:48:27.804Z,94142.00
2023-05-21T10:49:27.870Z,94142.00
2023-05-21T10:50:27.942Z,94144.00
2023-05-21T10:51:27.974Z,94142.00
2023-05-21T10:52:28.015Z,94136.00
2023-05-21T10:53:28.032Z,94136.00
2023-05-21T10:54:28.084Z,94134.00
2023-05-21T10:55:28.111Z,94136.00
2023-05-21T10:56:28.150Z,94138.00
2023-05-21T10:57:28.189Z,94132.00
2023-05-21T10:58:29.955Z,94134.00
2023-05-21T10:59:28.258Z,94130.00
2023-05-21T11:00:28.293Z,94132.00
2023-05-21T11:01:28.342Z,94134.00
2023-05-21T11:02:28.395Z,94134.00
2023-05-21T11:03:28.515Z,94130.00
2023-05-21T11:04:28.400Z,94134.00
2023-05-21T11:05:28.418Z,94134.00
2023-05-21T11:06:28.503Z,94136.00
2023-05-21T11:07:28.483Z,94130.00
2023-05-21T11:08:28.531Z,94134.00
2023-05-21T11:09:28.533Z,94128.00
2023-05-21T11:10:28.578Z,94130.00
2023-05-21T11:11:28.592Z,94124.00
2023-05-21T11:12:28.615Z,94126.00
2023-05-21T11:13:28.633Z,94128.00
2023-05-21T11:14:28.673Z,94130.00
2023-05-21T11:15:28.734Z,94126.00
2023-05-21T11:16:28.788Z,94124.00
2023-05-21T11:17:28.811Z,94122.00
2023-05-21T11:18:28.762Z,94120.00
2023-05-21T11:19:29.477Z,94122.00
2023-05-21T11:20:28.794Z,94124.00
2023-05-21T11:21:28.790Z,94128.00
2023-05-21T11:22:28.823Z,94126.00
2023-05-21T11:23:28.874Z,94126.00
2023-05-21T11:24:28.902Z,94122.00
2023-05-21T11:25:28.941Z,94126.00
2023-05-21T11:26:28.988Z,94122.00
2023-05-21T11:27:29.055Z,94122.00
2023-05-21T11:28:29.132Z,94126.00
2023-05-21T11:29:29.219Z,94128.00
2023-05-21T11:30:29.318Z,94120.00
2023-05-21T11:31:29.388Z,94122.00
2023-05-21T11:32:29.435Z,94126.00
2023-05-21T11:33:29.478Z,94126.00
2023-05-21T11:34:29.594Z,94126.00
2023-05-21T11:35:29.572Z,94122.00
2023-05-21T11:36:29.634Z,94126.00
2023-05-21T11:37:29.679Z,94120.00
2023-05-21T11:38:29.747Z,94118.00
2023-05-21T11:39:29.861Z,94116.00
2023-05-21T11:40:29.862Z,94109.00
2023-05-21T11:41:29.936Z,94109.00
2023-05-21T11:42:29.968Z,94107.00
2023-05-21T11:43:30.032Z,94109.00
2023-05-21T11:44:30.075Z,94109.00